الصفحة الرئيسية
METAR-TAF:

METAR-TAF

مطار :

مطار عمان المدني

عمان, الأردن

دائرة عرض: 31-59N, خط طول: 035-59E, ارتفاع: 767 متر

مراقبة الطقس الحالي

تاريخ ووقت الإصدار 22 دقيقة قبل الساعة 00:00UTC
ريح 8 عقدة من الغرب
درجة الحرارة 21°درجة مئوية
الرطوبة 53%
ضغط 1011 hPa
الرؤية: 5000 متر
العجاج

METAR: OJAM 180000Z 27008KT 5000 HZ NSC 21/11 Q1011 NOSIG

زمن: 03:22 (00:22 UTC)

توقعات

تاريخ ووقت الإصدار 3ساعات و 30 دقيقة قبل الساعة 20:52UTC
التوقعات صالحة من18 الساعة 00 UTC إلى 19 الساعة 06 UTC
ريح 6 عقدة من الغرب
الرؤية: 5000 متر
العجاج
أصبح
من 18 الساعة 06 UTC إلى 18 الساعة 08 UTC
ريح 10 عقدة من الغرب

TAF: OJAM 172052Z 1800/1906 26006KT 5000 HZ NSC BECMG 1806/1808 28010KT

أرصاد الطقس والتوقعات من أكثر من 4000 مطار (تقارير الطقس للمطار METAR والتنبؤ بالطقس بالمطارTAF).

المحطات المتاحة هي النقط الصفراء والحمراء على الخريطة.

حرك المؤشر فوق النقطة لمعرفة اسم المحطة.

ثم انقر لمعرفة أرصاد وتوقعات الطقس.

لتغيير الخارطة: اضغط على الأزرار الخضراء مع رمز الصليب الأسود للتكبير. على الزر الأخضر مع شرطة للتصغير، أو على الأسهم الخضراء للخرائط المجاورة.


METAR-TAF: